sensor_id;sensor_type;location;lat;lon;timestamp;P1;durP1;ratioP1;P2;durP2;ratioP2
5022;SDS011;2530;47.990;7.866;2023-09-18T00:01:38;5.43;;;2.10;;
5022;SDS011;2530;47.990;7.866;2023-09-18T00:04:06;3.13;;;1.90;;
5022;SDS011;2530;47.990;7.866;2023-09-18T00:06:32;3.90;;;2.03;;
5022;SDS011;2530;47.990;7.866;2023-09-18T00:08:58;7.13;;;2.88;;
5022;SDS011;2530;47.990;7.866;2023-09-18T00:11:24;9.73;;;4.70;;
5022;SDS011;2530;47.990;7.866;2023-09-18T00:13:49;8.95;;;4.60;;
5022;SDS011;2530;47.990;7.866;2023-09-18T00:16:15;14.43;;;5.07;;
5022;SDS011;2530;47.990;7.866;2023-09-18T00:18:41;9.30;;;4.73;;
5022;SDS011;2530;47.990;7.866;2023-09-18T00:21:07;8.40;;;4.53;;
5022;SDS011;2530;47.990;7.866;2023-09-18T00:23:35;15.47;;;4.60;;
5022;SDS011;2530;47.990;7.866;2023-09-18T00:26:01;11.10;;;5.22;;
5022;SDS011;2530;47.990;7.866;2023-09-18T00:28:26;8.97;;;4.73;;
5022;SDS011;2530;47.990;7.866;2023-09-18T00:30:52;7.00;;;4.45;;
5022;SDS011;2530;47.990;7.866;2023-09-18T00:33:17;9.33;;;4.30;;
5022;SDS011;2530;47.990;7.866;2023-09-18T00:35:49;7.90;;;5.03;;
5022;SDS011;2530;47.990;7.866;2023-09-18T00:38:16;7.90;;;4.73;;
5022;SDS011;2530;47.990;7.866;2023-09-18T00:40:42;8.32;;;4.07;;
5022;SDS011;2530;47.990;7.866;2023-09-18T00:43:08;7.93;;;4.50;;
5022;SDS011;2530;47.990;7.866;2023-09-18T00:45:34;11.23;;;4.70;;
5022;SDS011;2530;47.990;7.866;2023-09-18T00:48:09;9.77;;;4.53;;
5022;SDS011;2530;47.990;7.866;2023-09-18T00:50:36;10.73;;;4.68;;
5022;SDS011;2530;47.990;7.866;2023-09-18T00:53:02;10.07;;;5.13;;
5022;SDS011;2530;47.990;7.866;2023-09-18T00:55:28;10.43;;;4.53;;
5022;SDS011;2530;47.990;7.866;2023-09-18T00:57:56;8.30;;;4.90;;
5022;SDS011;2530;47.990;7.866;2023-09-18T01:00:21;12.50;;;5.45;;
5022;SDS011;2530;47.990;7.866;2023-09-18T01:02:47;9.38;;;4.50;;
5022;SDS011;2530;47.990;7.866;2023-09-18T01:05:13;8.82;;;4.80;;
5022;SDS011;2530;47.990;7.866;2023-09-18T01:07:41;10.55;;;5.05;;
5022;SDS011;2530;47.990;7.866;2023-09-18T01:10:07;8.40;;;5.00;;
5022;SDS011;2530;47.990;7.866;2023-09-18T01:15:12;7.82;;;4.68;;
5022;SDS011;2530;47.990;7.866;2023-09-18T01:17:45;10.07;;;4.15;;
5022;SDS011;2530;47.990;7.866;2023-09-18T01:20:12;8.30;;;4.60;;
5022;SDS011;2530;47.990;7.866;2023-09-18T01:22:37;11.98;;;4.80;;
5022;SDS011;2530;47.990;7.866;2023-09-18T01:25:03;12.35;;;4.80;;
5022;SDS011;2530;47.990;7.866;2023-09-18T01:27:30;10.50;;;5.00;;
5022;SDS011;2530;47.990;7.866;2023-09-18T01:29:56;8.53;;;4.40;;
5022;SDS011;2530;47.990;7.866;2023-09-18T01:32:23;8.68;;;4.63;;
5022;SDS011;2530;47.990;7.866;2023-09-18T01:34:52;11.00;;;4.90;;
5022;SDS011;2530;47.990;7.866;2023-09-18T01:37:20;10.25;;;4.40;;
5022;SDS011;2530;47.990;7.866;2023-09-18T01:39:48;8.45;;;4.22;;
5022;SDS011;2530;47.990;7.866;2023-09-18T01:42:18;11.32;;;4.65;;
5022;SDS011;2530;47.990;7.866;2023-09-18T01:44:44;11.63;;;4.97;;
5022;SDS011;2530;47.990;7.866;2023-09-18T01:47:12;10.50;;;4.13;;
5022;SDS011;2530;47.990;7.866;2023-09-18T01:49:42;10.13;;;3.85;;
5022;SDS011;2530;47.990;7.866;2023-09-18T01:52:08;8.87;;;4.30;;
5022;SDS011;2530;47.990;7.866;2023-09-18T01:54:35;8.98;;;4.65;;
5022;SDS011;2530;47.990;7.866;2023-09-18T01:57:01;10.33;;;5.10;;
5022;SDS011;2530;47.990;7.866;2023-09-18T01:59:27;8.90;;;4.43;;
5022;SDS011;2530;47.990;7.866;2023-09-18T02:01:53;8.07;;;3.83;;
5022;SDS011;2530;47.990;7.866;2023-09-18T02:04:19;12.00;;;4.33;;
5022;SDS011;2530;47.990;7.866;2023-09-18T02:06:46;6.78;;;4.90;;
5022;SDS011;2530;47.990;7.866;2023-09-18T02:09:13;10.45;;;4.88;;
5022;SDS011;2530;47.990;7.866;2023-09-18T02:11:39;7.40;;;4.30;;
5022;SDS011;2530;47.990;7.866;2023-09-18T02:14:05;8.35;;;4.90;;
5022;SDS011;2530;47.990;7.866;2023-09-18T02:16:35;8.20;;;5.45;;
5022;SDS011;2530;47.990;7.866;2023-09-18T02:19:01;10.55;;;5.20;;
5022;SDS011;2530;47.990;7.866;2023-09-18T02:21:28;6.95;;;4.10;;
5022;SDS011;2530;47.990;7.866;2023-09-18T02:23:54;9.45;;;4.30;;
5022;SDS011;2530;47.990;7.866;2023-09-18T02:26:20;8.00;;;4.30;;
5022;SDS011;2530;47.990;7.866;2023-09-18T02:28:46;7.00;;;4.45;;
5022;SDS011;2530;47.990;7.866;2023-09-18T02:31:12;16.53;;;5.90;;
5022;SDS011;2530;47.990;7.866;2023-09-18T02:33:38;17.48;;;6.57;;
5022;SDS011;2530;47.990;7.866;2023-09-18T02:36:04;18.53;;;6.87;;
5022;SDS011;2530;47.990;7.866;2023-09-18T02:38:30;13.07;;;5.50;;
5022;SDS011;2530;47.990;7.866;2023-09-18T02:40:56;11.68;;;5.13;;
5022;SDS011;2530;47.990;7.866;2023-09-18T02:43:22;16.25;;;5.63;;
5022;SDS011;2530;47.990;7.866;2023-09-18T02:45:48;15.38;;;6.00;;
5022;SDS011;2530;47.990;7.866;2023-09-18T02:48:14;11.02;;;5.45;;
5022;SDS011;2530;47.990;7.866;2023-09-18T02:50:40;10.77;;;5.87;;
5022;SDS011;2530;47.990;7.866;2023-09-18T02:53:06;10.55;;;5.50;;
5022;SDS011;2530;47.990;7.866;2023-09-18T02:55:36;12.45;;;5.78;;
5022;SDS011;2530;47.990;7.866;2023-09-18T02:58:02;11.52;;;5.75;;
5022;SDS011;2530;47.990;7.866;2023-09-18T03:00:28;9.43;;;4.10;;
5022;SDS011;2530;47.990;7.866;2023-09-18T03:02:53;9.77;;;4.40;;
5022;SDS011;2530;47.990;7.866;2023-09-18T03:05:19;7.30;;;3.13;;
5022;SDS011;2530;47.990;7.866;2023-09-18T03:07:44;9.30;;;3.07;;
5022;SDS011;2530;47.990;7.866;2023-09-18T03:10:10;3.93;;;2.63;;
5022;SDS011;2530;47.990;7.866;2023-09-18T03:12:39;5.03;;;2.60;;
5022;SDS011;2530;47.990;7.866;2023-09-18T03:15:06;5.20;;;2.70;;
5022;SDS011;2530;47.990;7.866;2023-09-18T03:17:32;5.75;;;2.90;;
5022;SDS011;2530;47.990;7.866;2023-09-18T03:19:58;5.90;;;2.60;;
5022;SDS011;2530;47.990;7.866;2023-09-18T03:22:23;6.00;;;3.00;;
5022;SDS011;2530;47.990;7.866;2023-09-18T03:24:49;6.03;;;2.97;;
5022;SDS011;2530;47.990;7.866;2023-09-18T03:27:14;6.50;;;2.80;;
5022;SDS011;2530;47.990;7.866;2023-09-18T03:29:40;4.95;;;2.47;;
5022;SDS011;2530;47.990;7.866;2023-09-18T03:32:05;5.73;;;2.50;;
5022;SDS011;2530;47.990;7.866;2023-09-18T03:34:31;4.33;;;2.40;;
5022;SDS011;2530;47.990;7.866;2023-09-18T03:36:57;6.75;;;2.70;;
5022;SDS011;2530;47.990;7.866;2023-09-18T03:39:22;6.47;;;3.10;;
5022;SDS011;2530;47.990;7.866;2023-09-18T03:41:48;5.63;;;3.15;;
5022;SDS011;2530;47.990;7.866;2023-09-18T03:44:13;8.17;;;3.30;;
5022;SDS011;2530;47.990;7.866;2023-09-18T03:46:39;6.35;;;3.40;;
5022;SDS011;2530;47.990;7.866;2023-09-18T03:49:05;7.87;;;4.07;;
5022;SDS011;2530;47.990;7.866;2023-09-18T03:51:30;6.30;;;3.05;;
5022;SDS011;2530;47.990;7.866;2023-09-18T03:53:56;6.70;;;3.53;;
5022;SDS011;2530;47.990;7.866;2023-09-18T03:56:22;8.00;;;3.50;;
5022;SDS011;2530;47.990;7.866;2023-09-18T03:58:47;8.60;;;3.60;;
5022;SDS011;2530;47.990;7.866;2023-09-18T04:01:15;7.30;;;3.72;;
5022;SDS011;2530;47.990;7.866;2023-09-18T04:03:41;4.68;;;3.22;;
5022;SDS011;2530;47.990;7.866;2023-09-18T04:06:06;7.90;;;3.35;;
5022;SDS011;2530;47.990;7.866;2023-09-18T04:08:32;5.10;;;3.40;;
5022;SDS011;2530;47.990;7.866;2023-09-18T04:10:58;6.87;;;3.10;;
5022;SDS011;2530;47.990;7.866;2023-09-18T04:13:23;4.93;;;3.20;;
5022;SDS011;2530;47.990;7.866;2023-09-18T04:15:49;5.32;;;3.00;;
5022;SDS011;2530;47.990;7.866;2023-09-18T04:18:15;7.82;;;3.95;;
5022;SDS011;2530;47.990;7.866;2023-09-18T04:20:40;12.47;;;3.40;;
5022;SDS011;2530;47.990;7.866;2023-09-18T04:23:19;4.80;;;3.27;;
5022;SDS011;2530;47.990;7.866;2023-09-18T04:25:49;4.43;;;3.38;;
5022;SDS011;2530;47.990;7.866;2023-09-18T04:28:16;5.70;;;3.40;;
5022;SDS011;2530;47.990;7.866;2023-09-18T04:30:43;3.25;;;2.53;;
5022;SDS011;2530;47.990;7.866;2023-09-18T04:33:09;6.50;;;3.13;;
5022;SDS011;2530;47.990;7.866;2023-09-18T04:35:35;5.10;;;2.45;;
5022;SDS011;2530;47.990;7.866;2023-09-18T04:38:01;3.60;;;2.60;;
5022;SDS011;2530;47.990;7.866;2023-09-18T04:40:27;3.75;;;2.20;;
5022;SDS011;2530;47.990;7.866;2023-09-18T04:42:57;4.75;;;2.50;;
5022;SDS011;2530;47.990;7.866;2023-09-18T04:45:23;5.72;;;2.65;;
5022;SDS011;2530;47.990;7.866;2023-09-18T04:47:49;6.78;;;2.72;;
5022;SDS011;2530;47.990;7.866;2023-09-18T04:50:15;3.78;;;2.90;;
5022;SDS011;2530;47.990;7.866;2023-09-18T04:52:40;4.37;;;2.30;;
5022;SDS011;2530;47.990;7.866;2023-09-18T04:55:07;4.60;;;2.50;;
5022;SDS011;2530;47.990;7.866;2023-09-18T04:57:33;5.88;;;2.70;;
5022;SDS011;2530;47.990;7.866;2023-09-18T04:59:59;4.20;;;2.80;;
5022;SDS011;2530;47.990;7.866;2023-09-18T05:02:25;6.18;;;2.97;;
5022;SDS011;2530;47.990;7.866;2023-09-18T05:04:51;7.43;;;2.75;;
5022;SDS011;2530;47.990;7.866;2023-09-18T05:07:17;5.03;;;2.63;;
5022;SDS011;2530;47.990;7.866;2023-09-18T05:09:42;4.85;;;2.78;;
5022;SDS011;2530;47.990;7.866;2023-09-18T05:12:08;8.10;;;2.90;;
5022;SDS011;2530;47.990;7.866;2023-09-18T05:14:38;6.57;;;3.22;;
5022;SDS011;2530;47.990;7.866;2023-09-18T05:17:16;5.72;;;2.90;;
5022;SDS011;2530;47.990;7.866;2023-09-18T05:19:50;6.28;;;3.17;;
5022;SDS011;2530;47.990;7.866;2023-09-18T05:22:16;4.07;;;2.87;;
5022;SDS011;2530;47.990;7.866;2023-09-18T05:24:41;9.93;;;4.50;;
5022;SDS011;2530;47.990;7.866;2023-09-18T05:27:07;7.63;;;3.30;;
5022;SDS011;2530;47.990;7.866;2023-09-18T05:29:32;6.53;;;2.90;;
5022;SDS011;2530;47.990;7.866;2023-09-18T05:32:00;9.55;;;3.20;;
5022;SDS011;2530;47.990;7.866;2023-09-18T05:34:25;5.37;;;3.00;;
5022;SDS011;2530;47.990;7.866;2023-09-18T05:36:51;6.80;;;3.10;;
5022;SDS011;2530;47.990;7.866;2023-09-18T05:39:17;7.37;;;2.93;;
5022;SDS011;2530;47.990;7.866;2023-09-18T05:41:43;5.07;;;2.90;;
5022;SDS011;2530;47.990;7.866;2023-09-18T05:44:08;3.10;;;2.78;;
5022;SDS011;2530;47.990;7.866;2023-09-18T05:46:34;5.03;;;3.00;;
5022;SDS011;2530;47.990;7.866;2023-09-18T05:49:01;6.25;;;3.45;;
5022;SDS011;2530;47.990;7.866;2023-09-18T05:51:27;5.95;;;3.10;;
5022;SDS011;2530;47.990;7.866;2023-09-18T05:53:52;5.82;;;3.10;;
5022;SDS011;2530;47.990;7.866;2023-09-18T05:56:18;5.00;;;2.50;;
5022;SDS011;2530;47.990;7.866;2023-09-18T05:58:44;5.70;;;3.00;;
5022;SDS011;2530;47.990;7.866;2023-09-18T06:01:09;3.40;;;2.10;;
5022;SDS011;2530;47.990;7.866;2023-09-18T06:03:35;4.27;;;2.30;;
5022;SDS011;2530;47.990;7.866;2023-09-18T06:06:04;4.23;;;2.70;;
5022;SDS011;2530;47.990;7.866;2023-09-18T06:08:30;4.60;;;2.30;;
5022;SDS011;2530;47.990;7.866;2023-09-18T06:10:56;7.53;;;2.60;;
5022;SDS011;2530;47.990;7.866;2023-09-18T06:13:24;4.43;;;2.00;;
5022;SDS011;2530;47.990;7.866;2023-09-18T06:15:50;5.15;;;1.80;;
5022;SDS011;2530;47.990;7.866;2023-09-18T06:18:17;6.07;;;1.80;;
5022;SDS011;2530;47.990;7.866;2023-09-18T06:20:45;2.33;;;1.10;;
5022;SDS011;2530;47.990;7.866;2023-09-18T06:23:11;4.67;;;1.30;;
5022;SDS011;2530;47.990;7.866;2023-09-18T06:25:37;5.28;;;1.63;;
5022;SDS011;2530;47.990;7.866;2023-09-18T06:28:03;3.13;;;1.35;;
5022;SDS011;2530;47.990;7.866;2023-09-18T06:30:29;3.50;;;1.92;;
5022;SDS011;2530;47.990;7.866;2023-09-18T06:32:59;3.53;;;1.70;;
5022;SDS011;2530;47.990;7.866;2023-09-18T06:35:26;3.80;;;1.40;;
5022;SDS011;2530;47.990;7.866;2023-09-18T06:37:51;3.20;;;1.30;;
5022;SDS011;2530;47.990;7.866;2023-09-18T06:40:19;2.95;;;1.27;;
5022;SDS011;2530;47.990;7.866;2023-09-18T06:42:45;3.60;;;1.60;;
5022;SDS011;2530;47.990;7.866;2023-09-18T06:45:10;3.40;;;1.80;;
5022;SDS011;2530;47.990;7.866;2023-09-18T06:47:37;2.60;;;1.60;;
5022;SDS011;2530;47.990;7.866;2023-09-18T06:50:05;3.13;;;2.00;;
5022;SDS011;2530;47.990;7.866;2023-09-18T06:52:31;3.10;;;1.63;;
5022;SDS011;2530;47.990;7.866;2023-09-18T06:54:57;3.43;;;2.00;;
5022;SDS011;2530;47.990;7.866;2023-09-18T06:57:23;3.40;;;1.60;;
5022;SDS011;2530;47.990;7.866;2023-09-18T06:59:49;3.67;;;1.90;;
5022;SDS011;2530;47.990;7.866;2023-09-18T07:02:14;3.42;;;2.20;;
5022;SDS011;2530;47.990;7.866;2023-09-18T07:04:41;5.30;;;1.80;;
5022;SDS011;2530;47.990;7.866;2023-09-18T07:07:10;3.80;;;1.83;;
5022;SDS011;2530;47.990;7.866;2023-09-18T07:09:37;4.60;;;1.83;;
5022;SDS011;2530;47.990;7.866;2023-09-18T07:12:03;2.90;;;2.60;;
5022;SDS011;2530;47.990;7.866;2023-09-18T07:14:29;3.88;;;2.08;;
5022;SDS011;2530;47.990;7.866;2023-09-18T07:16:55;4.30;;;2.50;;
5022;SDS011;2530;47.990;7.866;2023-09-18T07:19:21;4.68;;;2.20;;
5022;SDS011;2530;47.990;7.866;2023-09-18T07:21:46;5.07;;;2.22;;
5022;SDS011;2530;47.990;7.866;2023-09-18T07:24:12;2.80;;;1.90;;
5022;SDS011;2530;47.990;7.866;2023-09-18T07:26:45;4.00;;;1.80;;
5022;SDS011;2530;47.990;7.866;2023-09-18T07:29:14;1.80;;;1.60;;
5022;SDS011;2530;47.990;7.866;2023-09-18T07:31:41;4.82;;;2.30;;
5022;SDS011;2530;47.990;7.866;2023-09-18T07:34:07;4.75;;;2.15;;
5022;SDS011;2530;47.990;7.866;2023-09-18T07:36:33;5.37;;;2.40;;
5022;SDS011;2530;47.990;7.866;2023-09-18T07:38:58;4.30;;;2.43;;
5022;SDS011;2530;47.990;7.866;2023-09-18T07:41:24;6.95;;;2.75;;
5022;SDS011;2530;47.990;7.866;2023-09-18T07:43:50;5.50;;;2.37;;
5022;SDS011;2530;47.990;7.866;2023-09-18T07:46:15;4.27;;;2.20;;
5022;SDS011;2530;47.990;7.866;2023-09-18T07:48:41;5.18;;;2.55;;
5022;SDS011;2530;47.990;7.866;2023-09-18T07:51:10;3.77;;;2.27;;
5022;SDS011;2530;47.990;7.866;2023-09-18T07:53:41;4.85;;;2.30;;
5022;SDS011;2530;47.990;7.866;2023-09-18T07:56:06;7.28;;;2.75;;
5022;SDS011;2530;47.990;7.866;2023-09-18T07:58:32;2.33;;;1.93;;
5022;SDS011;2530;47.990;7.866;2023-09-18T08:00:58;3.33;;;1.90;;
5022;SDS011;2530;47.990;7.866;2023-09-18T08:03:27;6.30;;;2.70;;
5022;SDS011;2530;47.990;7.866;2023-09-18T08:05:53;4.80;;;2.50;;
5022;SDS011;2530;47.990;7.866;2023-09-18T08:08:19;3.53;;;2.30;;
5022;SDS011;2530;47.990;7.866;2023-09-18T08:10:46;4.50;;;2.50;;
5022;SDS011;2530;47.990;7.866;2023-09-18T08:13:13;2.90;;;1.90;;
5022;SDS011;2530;47.990;7.866;2023-09-18T08:15:38;4.80;;;2.30;;
5022;SDS011;2530;47.990;7.866;2023-09-18T08:18:04;3.95;;;2.40;;
5022;SDS011;2530;47.990;7.866;2023-09-18T08:20:30;6.30;;;2.25;;
5022;SDS011;2530;47.990;7.866;2023-09-18T08:22:56;3.60;;;2.10;;
5022;SDS011;2530;47.990;7.866;2023-09-18T08:25:21;7.38;;;2.08;;
5022;SDS011;2530;47.990;7.866;2023-09-18T08:27:47;4.97;;;1.90;;
5022;SDS011;2530;47.990;7.866;2023-09-18T08:30:13;2.72;;;2.13;;
5022;SDS011;2530;47.990;7.866;2023-09-18T08:32:40;3.90;;;2.20;;
5022;SDS011;2530;47.990;7.866;2023-09-18T08:35:07;3.90;;;1.98;;
5022;SDS011;2530;47.990;7.866;2023-09-18T08:37:33;3.58;;;1.75;;
5022;SDS011;2530;47.990;7.866;2023-09-18T08:39:59;4.10;;;1.40;;
5022;SDS011;2530;47.990;7.866;2023-09-18T08:42:34;3.30;;;1.70;;
5022;SDS011;2530;47.990;7.866;2023-09-18T08:45:02;2.58;;;1.55;;
5022;SDS011;2530;47.990;7.866;2023-09-18T08:47:34;2.33;;;1.30;;
5022;SDS011;2530;47.990;7.866;2023-09-18T08:50:00;1.70;;;1.60;;
5022;SDS011;2530;47.990;7.866;2023-09-18T08:52:26;2.08;;;1.25;;
5022;SDS011;2530;47.990;7.866;2023-09-18T08:54:53;3.67;;;1.48;;
5022;SDS011;2530;47.990;7.866;2023-09-18T08:57:21;1.83;;;0.90;;
5022;SDS011;2530;47.990;7.866;2023-09-18T08:59:48;1.60;;;1.00;;
5022;SDS011;2530;47.990;7.866;2023-09-18T09:02:15;1.02;;;0.93;;
5022;SDS011;2530;47.990;7.866;2023-09-18T09:04:40;2.37;;;1.10;;
5022;SDS011;2530;47.990;7.866;2023-09-18T09:07:06;2.38;;;1.40;;
5022;SDS011;2530;47.990;7.866;2023-09-18T09:09:32;2.05;;;1.10;;
5022;SDS011;2530;47.990;7.866;2023-09-18T09:11:58;2.72;;;1.10;;
5022;SDS011;2530;47.990;7.866;2023-09-18T09:14:23;1.47;;;1.20;;
5022;SDS011;2530;47.990;7.866;2023-09-18T09:16:56;1.85;;;1.00;;
5022;SDS011;2530;47.990;7.866;2023-09-18T09:19:31;2.75;;;1.20;;
5022;SDS011;2530;47.990;7.866;2023-09-18T09:22:00;2.25;;;1.30;;
5022;SDS011;2530;47.990;7.866;2023-09-18T09:24:35;2.30;;;1.00;;
5022;SDS011;2530;47.990;7.866;2023-09-18T09:27:03;1.77;;;1.10;;
5022;SDS011;2530;47.990;7.866;2023-09-18T09:29:28;3.20;;;1.10;;
5022;SDS011;2530;47.990;7.866;2023-09-18T09:31:55;3.28;;;1.42;;
5022;SDS011;2530;47.990;7.866;2023-09-18T09:34:27;2.80;;;1.13;;
5022;SDS011;2530;47.990;7.866;2023-09-18T09:36:56;2.30;;;1.30;;
5022;SDS011;2530;47.990;7.866;2023-09-18T09:39:22;4.45;;;1.33;;
5022;SDS011;2530;47.990;7.866;2023-09-18T09:41:52;3.55;;;1.50;;
5022;SDS011;2530;47.990;7.866;2023-09-18T09:44:19;1.60;;;1.30;;
5022;SDS011;2530;47.990;7.866;2023-09-18T09:46:48;2.78;;;1.50;;
5022;SDS011;2530;47.990;7.866;2023-09-18T09:49:14;3.53;;;1.40;;
5022;SDS011;2530;47.990;7.866;2023-09-18T09:51:41;3.60;;;1.50;;
5022;SDS011;2530;47.990;7.866;2023-09-18T09:54:07;3.65;;;1.27;;
5022;SDS011;2530;47.990;7.866;2023-09-18T09:56:49;2.90;;;2.00;;
5022;SDS011;2530;47.990;7.866;2023-09-18T09:59:18;2.00;;;1.40;;
5022;SDS011;2530;47.990;7.866;2023-09-18T10:01:47;3.30;;;1.10;;
5022;SDS011;2530;47.990;7.866;2023-09-18T10:04:17;1.90;;;1.20;;
5022;SDS011;2530;47.990;7.866;2023-09-18T10:06:44;2.20;;;1.10;;
5022;SDS011;2530;47.990;7.866;2023-09-18T10:09:13;6.18;;;1.40;;
5022;SDS011;2530;47.990;7.866;2023-09-18T10:11:42;1.37;;;1.13;;
5022;SDS011;2530;47.990;7.866;2023-09-18T10:14:15;2.22;;;1.40;;
5022;SDS011;2530;47.990;7.866;2023-09-18T10:16:45;4.30;;;1.50;;
5022;SDS011;2530;47.990;7.866;2023-09-18T10:24:34;3.35;;;1.45;;
5022;SDS011;2530;47.990;7.866;2023-09-18T10:27:02;4.00;;;1.70;;
5022;SDS011;2530;47.990;7.866;2023-09-18T10:29:30;3.70;;;1.50;;
5022;SDS011;2530;47.990;7.866;2023-09-18T10:32:01;4.10;;;1.50;;
5022;SDS011;2530;47.990;7.866;2023-09-18T10:34:29;3.20;;;2.00;;
5022;SDS011;2530;47.990;7.866;2023-09-18T10:36:57;2.28;;;1.30;;
5022;SDS011;2530;47.990;7.866;2023-09-18T10:39:26;2.00;;;1.27;;
5022;SDS011;2530;47.990;7.866;2023-09-18T10:41:54;2.80;;;1.10;;
5022;SDS011;2530;47.990;7.866;2023-09-18T10:44:20;2.50;;;1.20;;
5022;SDS011;2530;47.990;7.866;2023-09-18T10:46:48;1.83;;;0.95;;
5022;SDS011;2530;47.990;7.866;2023-09-18T10:49:18;2.08;;;1.20;;
5022;SDS011;2530;47.990;7.866;2023-09-18T10:51:45;2.05;;;0.93;;
5022;SDS011;2530;47.990;7.866;2023-09-18T10:54:15;2.00;;;1.40;;
5022;SDS011;2530;47.990;7.866;2023-09-18T10:56:44;4.10;;;1.30;;
5022;SDS011;2530;47.990;7.866;2023-09-18T10:59:10;2.23;;;1.33;;
5022;SDS011;2530;47.990;7.866;2023-09-18T11:01:36;1.58;;;0.95;;
5022;SDS011;2530;47.990;7.866;2023-09-18T11:04:05;2.00;;;1.20;;
5022;SDS011;2530;47.990;7.866;2023-09-18T11:09:25;2.30;;;1.23;;
5022;SDS011;2530;47.990;7.866;2023-09-18T11:14:32;1.80;;;1.50;;
5022;SDS011;2530;47.990;7.866;2023-09-18T11:17:31;2.80;;;1.17;;
5022;SDS011;2530;47.990;7.866;2023-09-18T11:20:06;2.47;;;1.30;;
5022;SDS011;2530;47.990;7.866;2023-09-18T11:25:30;1.70;;;1.10;;
5022;SDS011;2530;47.990;7.866;2023-09-18T11:28:01;2.65;;;1.33;;
5022;SDS011;2530;47.990;7.866;2023-09-18T11:30:28;2.78;;;1.10;;
5022;SDS011;2530;47.990;7.866;2023-09-18T11:32:54;1.40;;;1.10;;
5022;SDS011;2530;47.990;7.866;2023-09-18T11:35:20;1.95;;;1.13;;
5022;SDS011;2530;47.990;7.866;2023-09-18T11:37:46;2.80;;;1.10;;
5022;SDS011;2530;47.990;7.866;2023-09-18T11:40:31;2.43;;;1.00;;
5022;SDS011;2530;47.990;7.866;2023-09-18T11:43:18;2.40;;;1.10;;
5022;SDS011;2530;47.990;7.866;2023-09-18T11:45:49;2.55;;;1.00;;
5022;SDS011;2530;47.990;7.866;2023-09-18T11:48:17;2.30;;;1.00;;
5022;SDS011;2530;47.990;7.866;2023-09-18T11:50:44;1.50;;;1.00;;
5022;SDS011;2530;47.990;7.866;2023-09-18T11:53:11;3.08;;;1.52;;
5022;SDS011;2530;47.990;7.866;2023-09-18T11:55:38;2.38;;;1.30;;
5022;SDS011;2530;47.990;7.866;2023-09-18T11:58:05;2.08;;;1.15;;
5022;SDS011;2530;47.990;7.866;2023-09-18T12:00:31;1.63;;;1.33;;
5022;SDS011;2530;47.990;7.866;2023-09-18T12:02:57;3.07;;;1.27;;
5022;SDS011;2530;47.990;7.866;2023-09-18T12:05:25;2.28;;;1.30;;
5022;SDS011;2530;47.990;7.866;2023-09-18T12:07:51;1.27;;;1.05;;
5022;SDS011;2530;47.990;7.866;2023-09-18T12:10:18;1.30;;;1.17;;
5022;SDS011;2530;47.990;7.866;2023-09-18T12:12:46;1.48;;;0.90;;
5022;SDS011;2530;47.990;7.866;2023-09-18T12:15:17;1.40;;;1.15;;
5022;SDS011;2530;47.990;7.866;2023-09-18T12:17:43;2.60;;;1.10;;
5022;SDS011;2530;47.990;7.866;2023-09-18T12:20:15;1.70;;;1.10;;
5022;SDS011;2530;47.990;7.866;2023-09-18T12:22:48;3.85;;;1.13;;
5022;SDS011;2530;47.990;7.866;2023-09-18T12:25:18;1.73;;;1.03;;
5022;SDS011;2530;47.990;7.866;2023-09-18T12:27:44;1.47;;;1.00;;
5022;SDS011;2530;47.990;7.866;2023-09-18T12:30:10;3.83;;;1.27;;
5022;SDS011;2530;47.990;7.866;2023-09-18T12:32:37;4.50;;;1.27;;
5022;SDS011;2530;47.990;7.866;2023-09-18T12:35:03;2.20;;;1.10;;
5022;SDS011;2530;47.990;7.866;2023-09-18T12:37:32;2.05;;;1.10;;
5022;SDS011;2530;47.990;7.866;2023-09-18T12:39:59;1.70;;;1.20;;
5022;SDS011;2530;47.990;7.866;2023-09-18T12:42:24;2.50;;;0.90;;
5022;SDS011;2530;47.990;7.866;2023-09-18T12:44:51;1.52;;;1.05;;
5022;SDS011;2530;47.990;7.866;2023-09-18T12:47:17;2.30;;;1.08;;
5022;SDS011;2530;47.990;7.866;2023-09-18T12:49:43;1.90;;;0.90;;
5022;SDS011;2530;47.990;7.866;2023-09-18T12:52:08;1.17;;;0.93;;
5022;SDS011;2530;47.990;7.866;2023-09-18T12:54:54;1.13;;;0.90;;
5022;SDS011;2530;47.990;7.866;2023-09-18T12:57:21;2.30;;;0.80;;
5022;SDS011;2530;47.990;7.866;2023-09-18T12:59:46;2.58;;;1.20;;
5022;SDS011;2530;47.990;7.866;2023-09-18T13:02:16;1.43;;;0.93;;
5022;SDS011;2530;47.990;7.866;2023-09-18T13:04:50;2.20;;;0.90;;
5022;SDS011;2530;47.990;7.866;2023-09-18T13:07:17;3.38;;;1.30;;
5022;SDS011;2530;47.990;7.866;2023-09-18T13:09:43;2.10;;;0.90;;
5022;SDS011;2530;47.990;7.866;2023-09-18T13:12:40;4.10;;;1.27;;
5022;SDS011;2530;47.990;7.866;2023-09-18T13:15:23;1.77;;;0.98;;
5022;SDS011;2530;47.990;7.866;2023-09-18T13:17:53;1.10;;;0.93;;
5022;SDS011;2530;47.990;7.866;2023-09-18T13:20:23;1.75;;;0.73;;
5022;SDS011;2530;47.990;7.866;2023-09-18T13:22:52;1.83;;;0.90;;
5022;SDS011;2530;47.990;7.866;2023-09-18T13:25:23;1.90;;;0.80;;
5022;SDS011;2530;47.990;7.866;2023-09-18T13:27:53;1.90;;;1.30;;
5022;SDS011;2530;47.990;7.866;2023-09-18T13:30:19;2.20;;;1.05;;
5022;SDS011;2530;47.990;7.866;2023-09-18T13:32:47;1.50;;;1.10;;
5022;SDS011;2530;47.990;7.866;2023-09-18T13:35:14;1.70;;;1.00;;
5022;SDS011;2530;47.990;7.866;2023-09-18T13:37:43;1.60;;;0.90;;
5022;SDS011;2530;47.990;7.866;2023-09-18T13:40:10;1.20;;;1.00;;
5022;SDS011;2530;47.990;7.866;2023-09-18T13:42:36;1.58;;;1.10;;
5022;SDS011;2530;47.990;7.866;2023-09-18T13:45:05;1.15;;;0.80;;
5022;SDS011;2530;47.990;7.866;2023-09-18T13:47:32;1.67;;;0.90;;
5022;SDS011;2530;47.990;7.866;2023-09-18T13:50:02;1.90;;;0.98;;
5022;SDS011;2530;47.990;7.866;2023-09-18T13:52:29;1.40;;;0.93;;
5022;SDS011;2530;47.990;7.866;2023-09-18T13:54:57;2.70;;;1.10;;
5022;SDS011;2530;47.990;7.866;2023-09-18T13:57:23;1.10;;;0.80;;
5022;SDS011;2530;47.990;7.866;2023-09-18T13:59:49;3.28;;;1.48;;
5022;SDS011;2530;47.990;7.866;2023-09-18T14:02:16;2.22;;;0.90;;
5022;SDS011;2530;47.990;7.866;2023-09-18T14:04:43;2.40;;;1.20;;
5022;SDS011;2530;47.990;7.866;2023-09-18T14:07:09;2.20;;;1.10;;
5022;SDS011;2530;47.990;7.866;2023-09-18T14:09:36;1.70;;;1.03;;
5022;SDS011;2530;47.990;7.866;2023-09-18T14:12:02;1.25;;;0.75;;
5022;SDS011;2530;47.990;7.866;2023-09-18T14:14:33;3.60;;;1.00;;
5022;SDS011;2530;47.990;7.866;2023-09-18T14:17:00;1.70;;;1.20;;
5022;SDS011;2530;47.990;7.866;2023-09-18T14:19:26;1.30;;;0.80;;
5022;SDS011;2530;47.990;7.866;2023-09-18T14:21:51;2.80;;;1.60;;
5022;SDS011;2530;47.990;7.866;2023-09-18T14:24:17;2.90;;;1.30;;
5022;SDS011;2530;47.990;7.866;2023-09-18T14:26:47;4.20;;;1.20;;
5022;SDS011;2530;47.990;7.866;2023-09-18T14:29:15;2.60;;;1.30;;
5022;SDS011;2530;47.990;7.866;2023-09-18T14:31:41;2.10;;;1.30;;
5022;SDS011;2530;47.990;7.866;2023-09-18T14:34:07;2.17;;;1.00;;
5022;SDS011;2530;47.990;7.866;2023-09-18T14:36:36;2.08;;;0.80;;
5022;SDS011;2530;47.990;7.866;2023-09-18T14:39:04;2.10;;;1.00;;
5022;SDS011;2530;47.990;7.866;2023-09-18T14:41:30;2.20;;;1.10;;
5022;SDS011;2530;47.990;7.866;2023-09-18T14:43:57;2.13;;;1.00;;
5022;SDS011;2530;47.990;7.866;2023-09-18T14:46:23;2.00;;;1.00;;
5022;SDS011;2530;47.990;7.866;2023-09-18T14:48:49;3.28;;;1.42;;
5022;SDS011;2530;47.990;7.866;2023-09-18T14:51:15;3.17;;;1.38;;
5022;SDS011;2530;47.990;7.866;2023-09-18T14:53:40;2.60;;;1.33;;
5022;SDS011;2530;47.990;7.866;2023-09-18T14:56:06;1.85;;;0.90;;
5022;SDS011;2530;47.990;7.866;2023-09-18T14:58:32;2.58;;;1.10;;
5022;SDS011;2530;47.990;7.866;2023-09-18T15:00:58;2.83;;;1.00;;
5022;SDS011;2530;47.990;7.866;2023-09-18T15:03:24;1.90;;;1.20;;
5022;SDS011;2530;47.990;7.866;2023-09-18T15:05:50;2.20;;;1.27;;
5022;SDS011;2530;47.990;7.866;2023-09-18T15:08:23;2.58;;;1.00;;
5022;SDS011;2530;47.990;7.866;2023-09-18T15:10:49;11.40;;;1.95;;
5022;SDS011;2530;47.990;7.866;2023-09-18T15:13:14;1.30;;;1.20;;
5022;SDS011;2530;47.990;7.866;2023-09-18T15:15:41;2.85;;;1.30;;
5022;SDS011;2530;47.990;7.866;2023-09-18T15:18:11;1.73;;;1.20;;
5022;SDS011;2530;47.990;7.866;2023-09-18T15:20:36;2.80;;;1.10;;
5022;SDS011;2530;47.990;7.866;2023-09-18T15:23:04;1.55;;;1.00;;
5022;SDS011;2530;47.990;7.866;2023-09-18T15:25:30;1.23;;;1.00;;
5022;SDS011;2530;47.990;7.866;2023-09-18T15:27:58;2.25;;;1.30;;
5022;SDS011;2530;47.990;7.866;2023-09-18T15:30:25;3.50;;;1.20;;
5022;SDS011;2530;47.990;7.866;2023-09-18T15:32:52;3.50;;;1.70;;